Flight Track Log - Related Links

Times and Time Zones

All times are in EDT time to prevent confusion due to time zone crossing. See the N143DE flight status page for this flight to view local times or setup timezone preferences in your user account.

Time Position Orientation Groundspeed Altitude Reporting Facility
EDT Latitude Longitude Course Direction KTS MPH feet Rate Location/Type
Tue 05:24:19 AM 33.6500 -84.3833 160° South 137 158 3,300  Level Atlanta TRACON
Tue 05:25:19 AM 33.6500 -84.3500 90° East 136 157 5,600 2,000 Climbing Atlanta TRACON
Tue 05:26:19 AM 33.6000 -84.3333 164° South 152 175 7,300 1,735 Climbing Atlanta TRACON
Tue 05:28:43 AM 33.4997 -84.3128 170° South 165 190 11,500 1,588 Climbing Atlanta Center
Tue 05:29:00 AM 33.3100 -84.2270 160° South  Level Estimated
Tue 05:29:43 AM 33.4475 -84.3053 173° South 170 196 12,700  Level Atlanta Center
Tue 05:30:43 AM 33.3953 -84.2925 168° South 181 208 14,000 1,300 Climbing Atlanta Center
Tue 05:31:43 AM 33.3411 -84.2700 161° South 193 222 15,300 1,150 Climbing Atlanta Center
Tue 05:32:43 AM 33.2869 -84.2575 169° South 199 229 16,300 1,050 Climbing Atlanta Center
Tue 05:33:43 AM 33.2306 -84.2400 165° South 208 239 17,400 1,000 Climbing Atlanta Center
Tue 05:34:43 AM 33.1742 -84.2225 165° South 208 239 18,300 1,000 Climbing Atlanta Center
Tue 05:35:43 AM 33.1219 -84.2050 164° South 203 234 19,400 900 Climbing Atlanta Center
Tue 05:36:43 AM 33.0656 -84.1900 167° South 203 234 20,100 700 Climbing Atlanta Center
Tue 05:37:43 AM 33.0136 -84.1700 162° South 208 239 20,800 700 Climbing Atlanta Center
Tue 05:38:43 AM 32.9572 -84.1528 166° South 208 239 21,500 700 Climbing Atlanta Center
Tue 05:39:43 AM 32.8967 -84.1353 166° South 214 246 22,200 700 Climbing Atlanta Center
Tue 05:40:43 AM 32.8361 -84.1131 163° South 221 254 22,900 700 Climbing Atlanta Center
Tue 05:41:43 AM 32.7736 -84.0931 165° South 221 254 23,600 627 Climbing Atlanta Center
Tue 05:44:04 AM 32.6267 -84.0519 167° South 225 259 25,000 448 Climbing Jacksonville Center
Tue 05:45:04 AM 32.5603 -84.0314 165° South 236 272 25,100 50 Climbing Jacksonville Center
Tue 05:46:04 AM 32.4872 -84.0108 167° South 251 289 25,100 -50 Level Jacksonville Center
Tue 05:47:04 AM 32.4164 -83.9878 165° South 263 303 25,000 -50 Descending Jacksonville Center
Tue 05:48:04 AM 32.3394 -83.9647 166° South 273 314 25,000  Level Jacksonville Center
Tue 05:49:04 AM 32.2644 -83.9417 165° South 279 321 25,000  Level Jacksonville Center
Tue 05:50:04 AM 32.1894 -83.9186 165° South 279 321 25,000  Level Jacksonville Center
Tue 05:51:04 AM 32.1167 -83.8958 165° South 279 321 25,000  Level Jacksonville Center
Tue 05:52:04 AM 32.0417 -83.8706 164° South 279 321 25,000  Level Jacksonville Center
Tue 05:53:04 AM 31.9625 -83.8378 161° South 279 321 25,000  Level Jacksonville Center
Tue 05:54:04 AM 31.8917 -83.8103 162° South 279 321 25,000  Level Jacksonville Center
Tue 05:55:04 AM 31.8169 -83.7753 158° South 284 327 25,000  Level Jacksonville Center
Tue 05:56:04 AM 31.7439 -83.7453 161° South 284 327 25,000  Level Jacksonville Center
Tue 05:57:04 AM 31.6711 -83.7178 162° South 284 327 25,000  Level Jacksonville Center
Tue 05:58:04 AM 31.6025 -83.6928 163° South 284 327 25,000  Level Jacksonville Center
Tue 05:59:04 AM 31.5294 -83.6653 162° South 284 327 25,000  Level Jacksonville Center
Tue 06:00:04 AM 31.4567 -83.6353 161° South 279 321 25,000  Level Jacksonville Center
Tue 06:01:04 AM 31.3836 -83.6081 162° South 284 327 25,000  Level Jacksonville Center
Tue 06:02:04 AM 31.3108 -83.5783 161° South 284 327 25,000  Level Jacksonville Center
Tue 06:03:04 AM 31.2378 -83.5486 161° South 284 327 25,000  Level Jacksonville Center
Tue 06:04:04 AM 31.1650 -83.5189 161° South 284 327 25,000  Level Jacksonville Center
Tue 06:05:04 AM 31.0919 -83.4917 162° South 284 327 25,000  Level Jacksonville Center
Tue 06:06:04 AM 31.0189 -83.4647 162° South 284 327 25,000  Level Jacksonville Center
Tue 06:07:04 AM 30.9439 -83.4328 160° South 284 327 25,000  Level Jacksonville Center
Tue 06:08:04 AM 30.8711 -83.4033 161° South 284 327 25,000  Level Jacksonville Center
Tue 06:09:04 AM 30.7939 -83.3714 160° South 284 327 25,000  Level Jacksonville Center
Tue 06:10:04 AM 30.7208 -83.3444 162° South 279 321 25,000  Level Jacksonville Center
Tue 06:11:04 AM 30.6500 -83.3153 160° South 279 321 25,000  Level Jacksonville Center
Tue 06:12:04 AM 30.5769 -83.2883 162° South 279 321 25,000  Level Jacksonville Center
Tue 06:13:04 AM 30.5061 -83.2614 162° South 279 321 25,000  Level Jacksonville Center
Tue 06:14:04 AM 30.4331 -83.2322 161° South 279 321 25,000  Level Jacksonville Center
Tue 06:15:04 AM 30.3600 -83.2056 163° South 279 321 25,000  Level Jacksonville Center
Tue 06:16:04 AM 30.2892 -83.1764 160° South 279 321 25,000  Level Jacksonville Center
Tue 06:17:04 AM 30.2183 -83.1475 161° South 279 321 25,000  Level Jacksonville Center
Tue 06:18:04 AM 30.1453 -83.1208 162° South 279 321 25,000  Level Jacksonville Center
Tue 06:19:04 AM 30.0742 -83.0942 162° South 279 321 25,000  Level Jacksonville Center
Tue 06:20:04 AM 30.0033 -83.0678 162° South 279 321 25,000  Level Jacksonville Center
Tue 06:21:04 AM 29.9367 -83.0436 163° South 284 327 25,000  Level Jacksonville Center
Tue 06:22:04 AM 29.8656 -83.0147 161° South 279 321 25,000  Level Jacksonville Center
Tue 06:23:04 AM 29.7925 -82.9858 161° South 279 321 25,000  Level Jacksonville Center
Tue 06:24:04 AM 29.7194 -82.9594 163° South 279 321 25,000  Level Jacksonville Center
Tue 06:25:04 AM 29.6486 -82.9333 162° South 279 321 25,000  Level Jacksonville Center
Tue 06:26:04 AM 29.5733 -82.9044 162° South 279 321 25,000  Level Jacksonville Center
Tue 06:27:04 AM 29.5025 -82.8783 162° South 285 328 25,000  Level Jacksonville Center
Tue 06:28:04 AM 29.4272 -82.8472 160° South 285 328 25,000  Level Jacksonville Center
Tue 06:29:04 AM 29.3542 -82.8211 163° South 280 322 25,000  Level Jacksonville Center
Tue 06:30:04 AM 29.2831 -82.7925 161° South 280 322 25,000  Level Jacksonville Center
Tue 06:31:04 AM 29.2081 -82.7642 162° South 280 322 25,000  Level Jacksonville Center
Tue 06:32:04 AM 29.1369 -82.7381 162° South 280 322 25,000  Level Jacksonville Center
Tue 06:33:04 AM 29.0661 -82.7072 159° South 280 322 25,000  Level Jacksonville Center
Tue 06:34:04 AM 28.9886 -82.6814 164° South 285 328 25,000  Level Jacksonville Center
Tue 06:35:04 AM 28.9156 -82.6531 161° South 285 328 25,000  Level Jacksonville Center
Tue 06:36:04 AM 28.8425 -82.6247 161° South 285 328 25,000  Level Jacksonville Center
Tue 06:37:04 AM 28.7694 -82.5964 161° South 285 328 25,000  Level Jacksonville Center
Tue 06:38:04 AM 28.6942 -82.5708 163° South 285 328 25,000  Level Jacksonville Center
Tue 06:39:04 AM 28.6147 -82.5425 163° South 285 328 25,000  Level Jacksonville Center
Tue 06:40:04 AM 28.5439 -82.5144 161° South 285 328 25,000  Level Jacksonville Center
Tue 06:41:04 AM 28.4664 -82.4864 162° South 285 328 25,000  Level Jacksonville Center
Tue 06:42:04 AM 28.3933 -82.4583 161° South 285 328 25,000  Level Jacksonville Center
Tue 06:43:04 AM 28.3203 -82.4328 163° South 285 328 25,000  Level Jacksonville Center
Tue 06:44:04 AM 28.2450 -82.4047 162° South 285 328 25,000  Level Jacksonville Center
Tue 06:46:12 AM 28.0833 -82.3442 162° South 277 319 25,000  Level Miami Center
Tue 06:47:12 AM 28.0092 -82.3169 162° South 284 327 25,000  Level Miami Center
Tue 06:48:12 AM 27.9350 -82.2900 162° South 279 321 25,000  Level Miami Center
Tue 06:49:12 AM 27.8653 -82.2631 161° South 279 321 25,000  Level Miami Center
Tue 06:50:12 AM 27.7869 -82.2311 160° South 284 327 25,000  Level Miami Center
Tue 06:51:12 AM 27.7108 -82.2042 163° South 284 327 25,000  Level Miami Center
Tue 06:52:13 AM 27.6347 -82.1772 163° South 284 327 25,000  Level Miami Center
Tue 06:53:12 AM 27.5689 -82.1531 162° South 284 327 25,000  Level Miami Center
Tue 06:54:12 AM 27.4925 -82.1261 163° South 284 327 25,000  Level Miami Center
Tue 06:55:12 AM 27.4122 -82.0967 162° South 284 327 25,000  Level Miami Center
Tue 06:56:12 AM 27.3361 -82.0675 161° South 284 327 25,000  Level Miami Center
Tue 06:57:12 AM 27.2703 -82.0436 162° South 278 320 25,000  Level Miami Center
Tue 06:58:12 AM 27.1939 -82.0169 163° South 283 326 25,000  Level Miami Center
Tue 06:59:12 AM 27.1114 -81.9853 161° South 283 326 25,000  Level Miami Center
Tue 07:00:12 AM 27.0353 -81.9586 163° South 283 326 25,000 -50 Level Miami Center
Tue 07:01:12 AM 26.9700 -81.9139 149° Southeast 278 320 24,900 -645 Descending Miami Center
Tue 07:02:13 AM 26.9097 -81.8458 135° Southeast 293 337 23,700 -1,100 Descending Miami Center
Tue 07:03:12 AM 26.8456 -81.7733 135° Southeast 308 354 22,700 -958 Descending Miami Center
Tue 07:04:12 AM 26.7831 -81.7011 134° Southeast 315 362 21,800 -900 Descending Miami Center
Tue 07:05:12 AM 26.7208 -81.6286 134° Southeast 321 369 20,900 -850 Descending Miami Center
Tue 07:06:12 AM 26.6622 -81.5658 136° Southeast 316 364 20,100 -850 Descending Miami Center
Tue 07:07:12 AM 26.6019 -81.4961 134° Southeast 316 364 19,200 -1,500 Descending Miami Center
Tue 07:08:12 AM 26.5333 -81.4239 137° Southeast 311 358 17,100 -1,900 Descending Miami Center
Tue 07:09:12 AM 26.4706 -81.3564 136° Southeast 311 358 15,400 -1,650 Descending Miami Center
Tue 07:10:12 AM 26.4100 -81.2914 136° Southeast 316 364 13,800 -1,850 Descending Miami Center
Tue 07:11:12 AM 26.3494 -81.2244 135° Southeast 310 357 11,700 -1,817 Descending Miami Center
Tue 07:12:01 AM 26.2986 -81.1714 137° Southeast 291 335 10,500 -1,475 Descending Miami Center
Tue 07:12:13 AM 26.2928 -81.1619 125° Southeast 298 343 10,200 -1,667 Descending Miami Center
Tue 07:12:19 AM 26.2825 -81.1569 156° South 286 329 10,000 -1,525 Descending Miami Center
Tue 07:13:12 AM 26.2381 -81.1022 132° Southeast 286 329 8,700 -1,433 Descending Miami Center
Tue 07:13:26 AM 26.2239 -81.0900 142° Southeast 276 318 8,400 -1,100 Descending Miami Center
Tue 07:14:12 AM 26.1856 -81.0447 133° Southeast 275 316 7,600 -1,082 Descending Miami Center
Tue 07:14:27 AM 26.1692 -81.0303 142° Southeast 258 297 7,300 -1,000 Descending Miami Center
Tue 07:15:12 AM 26.1389 -80.9944 133° Southeast 269 310 6,600 -1,250 Descending Miami Center
Tue 07:15:15 AM 26.1308 -80.9850 134° Southeast 255 293 6,300 -600 Descending Miami Center
Tue 07:16:12 AM 26.1242 -80.9222 97° East 244 281 6,000 -295 Descending Miami Center
Tue 07:16:16 AM 26.1203 -80.9153 122° Southeast 231 266 6,000  Level Miami Center
Tue 07:17:12 AM 26.1136 -80.8503 97° East 233 268 6,000  Level Miami Center
Tue 07:17:16 AM 26.1097 -80.8431 121° Southeast 238 274 6,000  Level Miami Center
Tue 07:18:12 AM 26.1031 -80.7758 96° East 233 268 6,000  Level Miami Center
Tue 07:18:23 AM 26.0994 -80.7550 101° East 244 281 6,000  Level Miami Center
Tue 07:19:12 AM 26.0947 -80.7017 96° East 239 275 6,000  Level Miami Center
Tue 07:19:24 AM 26.0889 -80.6806 107° East 243 280 6,000  Level Miami Center
Tue 07:20:12 AM 26.0861 -80.6272 93° East 239 275 6,000 -200 Level Miami Center
Tue 07:20:24 AM 26.0803 -80.6064 107° East 244 281 5,800 -600 Descending Miami Center
Tue 07:21:12 AM 26.0797 -80.5508 91° East 239 275 5,400 -655 Descending Miami Center
Tue 07:21:19 AM 26.0758 -80.5344 105° East 253 291 5,200 -353 Descending Miami Center
Tue 07:22:20 AM 26.0756 -80.4606 90° East 240 276 5,000 -443 Descending Miami Center
Tue 07:23:21 AM 26.0753 -80.3911 90° East 213 245 4,300 -992 Descending Miami Center
Tue 07:24:21 AM 26.0747 -80.3239 91° East 210 242 3,000 -1,091 Descending Miami Center
Tue 07:25:22 AM 26.0761 -80.2731 88° East 151 174 2,100 -934 Descending Miami Center
Tue 07:26:23 AM 26.0750 -80.2314 92° East 128 147 1,100 -836 Descending Miami Center
Tue 07:27:24 AM 26.0736 -80.1922 92° East 121 139 400 -689 Descending Miami Center
Tue 07:29:00 AM 26.0667 -80.1500 90° East  Level FlightAware Approximate

Login

Don't have an account? Register now (free) for customized features, flight alerts, and more!